Time;durP1;ratioP1;P1;durP2;ratioP2;P2;SDS_P1;SDS_P2;PMS_P1;PMS_P2;Temp;Humidity;BMP_temperature;BMP_pressure;BME280_temperature;BME280_humidity;BME280_pressure;Samples;Min_cycle;Max_cycle;Signal;HPM_P1;HPM_P2
2022/08/15 00:00:46;;;;;;;0.40;0.40;;;22.70;99.90;;;;;;5112943;28;20283;-67
2022/08/15 00:03:38;;;;;;;0.50;0.50;;;22.70;99.90;;;;;;5112567;28;20204;-66
2022/08/15 00:06:47;;;;;;;0.50;0.50;;;22.60;99.90;;;;;;5112676;28;20283;-65
2022/08/15 00:09:37;;;;;;;0.43;0.43;;;22.50;99.90;;;;;;5112511;28;20226;-66
2022/08/15 00:12:43;;;;;;;0.40;0.40;;;22.50;99.90;;;;;;5111912;28;20195;-65
2022/08/15 00:15:32;;;;;;;0.40;0.40;;;22.40;99.90;;;;;;5113117;28;20199;-64
2022/08/15 00:18:22;;;;;;;0.50;0.50;;;22.40;99.90;;;;;;5112900;28;20579;-64
2022/08/15 00:21:11;;;;;;;0.40;0.40;;;22.40;99.90;;;;;;5111949;28;20203;-66
2022/08/15 00:23:59;;;;;;;0.40;0.40;;;22.40;99.90;;;;;;5111946;28;20199;-65
2022/08/15 00:26:49;;;;;;;0.43;0.43;;;22.50;99.90;;;;;;5112378;28;20733;-65
2022/08/15 00:29:43;;;;;;;0.40;0.40;;;22.30;99.90;;;;;;5111525;28;20226;-66
2022/08/15 00:32:36;;;;;;;0.40;0.40;;;22.30;99.90;;;;;;5112555;28;20316;-66
2022/08/15 00:35:46;;;;;;;0.40;0.40;;;22.30;99.90;;;;;;5112373;28;20199;-66
2022/08/15 00:38:43;;;;;;;0.40;0.40;;;22.30;99.90;;;;;;5112197;28;20268;-68
2022/08/15 00:41:41;;;;;;;0.50;0.50;;;22.20;99.90;;;;;;5111948;28;20191;-66
2022/08/15 00:44:34;;;;;;;0.40;0.40;;;22.20;99.90;;;;;;5111500;28;20235;-65
2022/08/15 00:47:42;;;;;;;0.40;0.40;;;22.20;99.90;;;;;;5111855;28;20211;-68
2022/08/15 00:50:31;;;;;;;0.40;0.40;;;22.10;99.90;;;;;;5111206;28;20199;-64
2022/08/15 00:53:22;;;;;;;0.40;0.40;;;22.10;99.90;;;;;;5112605;28;20220;-66
2022/08/15 00:56:12;;;;;;;0.40;0.40;;;22.10;99.90;;;;;;5111269;28;20199;-66
2022/08/15 00:59:22;;;;;;;0.50;0.50;;;22.10;99.90;;;;;;5111115;28;20604;-68
2022/08/15 01:02:13;;;;;;;0.40;0.40;;;22.20;99.90;;;;;;5111458;28;20694;-65
2022/08/15 01:05:15;;;;;;;0.50;0.50;;;22.00;99.90;;;;;;5112085;28;20298;-64
2022/08/15 01:08:05;;;;;;;0.40;0.40;;;22.10;99.90;;;;;;5111371;28;20298;-65
2022/08/15 01:10:57;;;;;;;0.40;0.40;;;22.00;99.90;;;;;;5110934;28;20722;-65
2022/08/15 01:13:59;;;;;;;0.40;0.40;;;22.00;99.90;;;;;;5112392;28;20469;-64
2022/08/15 01:17:08;;;;;;;0.40;0.40;;;22.10;99.90;;;;;;5111744;28;20337;-66
2022/08/15 01:20:01;;;;;;;0.40;0.40;;;22.00;99.90;;;;;;5110719;28;20710;-65
2022/08/15 01:23:03;;;;;;;0.40;0.40;;;22.00;99.90;;;;;;5111928;28;20203;-65
2022/08/15 01:25:58;;;;;;;0.40;0.40;;;22.00;99.90;;;;;;5111240;28;20199;-66
2022/08/15 01:29:07;;;;;;;0.45;0.45;;;21.90;99.90;;;;;;5111210;28;20368;-68
2022/08/15 01:31:56;;;;;;;0.40;0.40;;;21.90;99.90;;;;;;5111593;28;20195;-67
2022/08/15 01:34:44;;;;;;;0.40;0.40;;;21.90;99.90;;;;;;5111107;28;20210;-65
2022/08/15 01:37:33;;;;;;;0.40;0.40;;;21.90;99.90;;;;;;5110993;28;20196;-65
2022/08/15 01:40:51;;;;;;;0.40;0.40;;;21.90;99.90;;;;;;5110071;28;20199;-64
2022/08/15 01:43:50;;;;;;;1.67;1.58;;;21.80;99.90;;;;;;5111454;28;20198;-67
2022/08/15 01:46:48;;;;;;;0.40;0.40;;;21.80;99.90;;;;;;5111443;28;20203;-66
2022/08/15 01:49:40;;;;;;;0.50;0.50;;;21.80;99.90;;;;;;5107451;28;20229;-67
2022/08/15 01:52:40;;;;;;;0.40;0.40;;;21.80;99.90;;;;;;5090838;28;20192;-66
2022/08/15 01:55:52;;;;;;;0.40;0.40;;;21.70;99.90;;;;;;5091097;28;20572;-67
2022/08/15 01:58:45;;;;;;;0.40;0.40;;;21.70;99.90;;;;;;5091512;28;20630;-66
2022/08/15 02:01:43;;;;;;;0.40;0.40;;;21.70;99.90;;;;;;5090830;28;20789;-65
2022/08/15 02:04:42;;;;;;;0.40;0.40;;;21.60;99.90;;;;;;5091092;28;20285;-66
2022/08/15 02:07:40;;;;;;;0.40;0.40;;;21.60;99.90;;;;;;5090270;28;20196;-65
2022/08/15 02:10:48;;;;;;;0.40;0.40;;;21.60;99.90;;;;;;5091254;28;20676;-65
2022/08/15 02:13:37;;;;;;;0.50;0.50;;;21.60;99.90;;;;;;5090297;28;20574;-65
2022/08/15 02:16:31;;;;;;;0.40;0.40;;;21.50;99.90;;;;;;5091334;28;20200;-65
2022/08/15 02:19:20;;;;;;;0.50;0.50;;;21.50;99.90;;;;;;5094550;28;20216;-65
2022/08/15 02:22:09;;;;;;;0.40;0.40;;;21.60;99.90;;;;;;5094623;28;20250;-65
2022/08/15 02:25:13;;;;;;;0.40;0.40;;;21.50;99.90;;;;;;5094761;28;20200;-65
2022/08/15 02:28:09;;;;;;;0.40;0.40;;;21.50;99.90;;;;;;5094483;28;20224;-66
2022/08/15 02:31:20;;;;;;;0.40;0.40;;;21.50;99.90;;;;;;5093351;28;20252;-66
2022/08/15 02:34:13;;;;;;;0.40;0.40;;;21.40;99.90;;;;;;5095010;28;20192;-67
2022/08/15 02:37:04;;;;;;;0.50;0.50;;;21.40;99.90;;;;;;5094159;28;20667;-64
2022/08/15 02:39:56;;;;;;;0.40;0.40;;;21.40;99.90;;;;;;5094519;28;20289;-66
2022/08/15 02:43:07;;;;;;;0.40;0.40;;;21.30;99.90;;;;;;5094269;28;20279;-65
2022/08/15 02:45:59;;;;;;;0.40;0.40;;;21.30;99.90;;;;;;5094165;28;20196;-65
2022/08/15 02:49:11;;;;;;;0.40;0.40;;;21.30;99.90;;;;;;5093702;28;20227;-67
2022/08/15 02:52:00;;;;;;;0.40;0.40;;;21.20;99.90;;;;;;5094067;28;20204;-67
2022/08/15 02:54:52;;;;;;;0.40;0.40;;;21.20;99.90;;;;;;5094009;28;20196;-64
2022/08/15 02:57:47;;;;;;;0.40;0.40;;;21.10;99.90;;;;;;5093744;28;20195;-65
2022/08/15 03:00:47;;;;;;;0.40;0.40;;;21.10;99.90;;;;;;5093532;28;20191;-66
2022/08/15 03:03:38;;;;;;;0.50;0.50;;;21.00;99.90;;;;;;5094364;28;20215;-66
2022/08/15 03:06:30;;;;;;;0.43;0.43;;;21.00;99.90;;;;;;5093741;28;20203;-64
2022/08/15 03:09:22;;;;;;;0.82;0.82;;;21.00;99.90;;;;;;5093199;28;20228;-65
2022/08/15 03:12:13;;;;;;;0.40;0.40;;;20.90;99.90;;;;;;5093659;28;20202;-66
2022/08/15 03:15:19;;;;;;;0.50;0.50;;;20.90;99.90;;;;;;5093508;28;20200;-66
2022/08/15 03:18:07;;;;;;;0.50;0.50;;;20.90;99.90;;;;;;5092830;28;20216;-65
2022/08/15 03:20:56;;;;;;;0.40;0.40;;;20.90;99.90;;;;;;5092602;28;20207;-65
2022/08/15 03:23:48;;;;;;;0.40;0.40;;;20.80;99.90;;;;;;5093497;28;20196;-65
2022/08/15 03:26:39;;;;;;;0.40;0.40;;;20.80;99.90;;;;;;5093371;28;20207;-65
2022/08/15 03:29:35;;;;;;;0.40;0.40;;;20.80;99.90;;;;;;5092215;28;20219;-66
2022/08/15 03:32:44;;;;;;;0.40;0.40;;;20.70;99.90;;;;;;5093209;28;20208;-65
2022/08/15 03:35:39;;;;;;;0.50;0.50;;;20.70;99.90;;;;;;5093025;28;20264;-67
2022/08/15 03:38:28;;;;;;;0.40;0.40;;;20.00;99.90;;;;;;5093209;28;20220;-64
2022/08/15 03:41:36;;;;;;;0.40;0.40;;;20.70;99.90;;;;;;5093329;28;20225;-66
2022/08/15 03:44:25;;;;;;;0.40;0.40;;;20.60;99.90;;;;;;5093253;28;20683;-64
2022/08/15 03:47:21;;;;;;;0.40;0.40;;;20.50;99.90;;;;;;5093029;28;20215;-66
2022/08/15 03:50:11;;;;;;;0.40;0.40;;;20.60;99.90;;;;;;5091921;28;20595;-65
2022/08/15 03:53:15;;;;;;;0.40;0.40;;;20.60;99.90;;;;;;5092217;28;20204;-67
2022/08/15 03:56:06;;;;;;;0.40;0.40;;;20.60;99.90;;;;;;5092934;28;20429;-65
2022/08/15 03:58:57;;;;;;;0.40;0.40;;;20.60;99.90;;;;;;5092725;28;20795;-66
2022/08/15 04:01:46;;;;;;;0.40;0.40;;;20.60;99.90;;;;;;5092160;28;20211;-66
2022/08/15 04:04:35;;;;;;;0.40;0.40;;;20.50;99.90;;;;;;5096994;28;20739;-67
2022/08/15 04:07:28;;;;;;;0.40;0.40;;;20.60;99.90;;;;;;5113665;28;20207;-65
2022/08/15 04:10:29;;;;;;;0.40;0.40;;;20.50;99.90;;;;;;5113648;28;20274;-67
2022/08/15 04:13:29;;;;;;;0.40;0.40;;;20.60;99.90;;;;;;5112908;28;20675;-64
2022/08/15 04:16:19;;;;;;;0.40;0.40;;;20.60;99.90;;;;;;5112756;28;20202;-67
2022/08/15 04:19:28;;;;;;;0.50;0.50;;;20.60;99.90;;;;;;5110615;28;20247;-66
2022/08/15 04:22:36;;;;;;;0.40;0.40;;;20.60;99.90;;;;;;5112768;28;20206;-67
2022/08/15 04:25:42;;;;;;;0.40;0.40;;;20.60;99.90;;;;;;5112610;28;20281;-68
2022/08/15 04:28:43;;;;;;;0.40;0.40;;;20.60;99.90;;;;;;5111819;28;20215;-65
2022/08/15 04:31:42;;;;;;;0.47;0.47;;;20.70;99.90;;;;;;5112833;28;20276;-65
2022/08/15 04:34:31;;;;;;;0.47;0.47;;;20.70;99.90;;;;;;5112503;28;20195;-67
2022/08/15 04:37:40;;;;;;;0.40;0.40;;;20.70;99.90;;;;;;5110955;28;20199;-65
2022/08/15 04:40:30;;;;;;;0.40;0.40;;;20.70;99.90;;;;;;5112647;28;20280;-66
2022/08/15 04:43:40;;;;;;;0.40;0.40;;;20.70;99.90;;;;;;5112317;28;20195;-67
2022/08/15 04:46:29;;;;;;;0.40;0.40;;;20.80;99.90;;;;;;5112163;28;20200;-66
2022/08/15 04:49:18;;;;;;;0.50;0.50;;;20.90;99.90;;;;;;5112390;28;20271;-65
2022/08/15 04:52:15;;;;;;;0.40;0.40;;;20.90;99.90;;;;;;5111332;28;20668;-66
2022/08/15 04:55:05;;;;;;;0.40;0.40;;;20.90;99.90;;;;;;5112048;28;20240;-65
2022/08/15 04:57:55;;;;;;;0.50;0.50;;;21.00;99.90;;;;;;5111975;28;20200;-66
2022/08/15 05:00:51;;;;;;;0.40;0.40;;;21.00;99.90;;;;;;5111055;28;20196;-65
2022/08/15 05:03:40;;;;;;;0.40;0.40;;;21.00;99.90;;;;;;5112075;28;20203;-65
2022/08/15 05:06:28;;;;;;;0.40;0.40;;;21.10;99.90;;;;;;5113078;28;20191;-66
2022/08/15 05:09:20;;;;;;;0.50;0.50;;;21.10;99.90;;;;;;5111781;28;20229;-65
2022/08/15 05:12:11;;;;;;;0.40;0.40;;;21.10;99.90;;;;;;5112510;28;20256;-65
2022/08/15 05:15:00;;;;;;;0.40;0.40;;;21.10;99.90;;;;;;5112059;28;20196;-66
2022/08/15 05:17:50;;;;;;;0.40;0.40;;;21.10;99.90;;;;;;5110949;28;20198;-66
2022/08/15 05:20:45;;;;;;;0.40;0.40;;;21.20;99.90;;;;;;5111126;28;20508;-64
2022/08/15 05:23:39;;;;;;;0.40;0.40;;;21.20;99.90;;;;;;5111975;28;20616;-67
2022/08/15 05:26:31;;;;;;;0.40;0.40;;;21.20;99.90;;;;;;5112308;28;20202;-65
2022/08/15 05:29:41;;;;;;;0.40;0.40;;;21.30;99.90;;;;;;5111231;28;20218;-67
2022/08/15 05:32:29;;;;;;;0.40;0.40;;;21.20;99.90;;;;;;5112413;28;20335;-68
2022/08/15 05:35:18;;;;;;;0.40;0.40;;;21.30;99.90;;;;;;5112336;28;20800;-66
2022/08/15 05:38:07;;;;;;;0.40;0.40;;;21.30;99.90;;;;;;5109797;28;20261;-67
2022/08/15 05:41:25;;;;;;;0.50;0.50;;;21.30;99.90;;;;;;5111314;28;20203;-66
2022/08/15 05:44:22;;;;;;;0.40;0.40;;;21.30;99.90;;;;;;5111445;28;20562;-68
2022/08/15 05:47:34;;;;;;;0.40;0.40;;;21.40;99.90;;;;;;5110806;28;20749;-65
2022/08/15 05:50:35;;;;;;;0.40;0.40;;;21.40;99.90;;;;;;5110536;28;20278;-66
2022/08/15 05:53:31;;;;;;;0.40;0.40;;;21.40;99.90;;;;;;5114542;28;20638;-65
2022/08/15 05:56:48;;;;;;;0.40;0.40;;;21.40;99.90;;;;;;5114606;28;20568;-67
2022/08/15 05:59:41;;;;;;;0.40;0.40;;;21.40;99.90;;;;;;5114686;28;20227;-65
2022/08/15 06:02:39;;;;;;;0.40;0.40;;;21.50;99.90;;;;;;5115472;28;20191;-65
2022/08/15 06:05:47;;;;;;;0.40;0.40;;;21.50;99.90;;;;;;5115247;28;20682;-66
2022/08/15 06:08:47;;;;;;;0.40;0.40;;;21.60;99.90;;;;;;5114983;28;20303;-68
2022/08/15 06:11:54;;;;;;;0.40;0.40;;;21.60;99.90;;;;;;5114149;28;20220;-67
2022/08/15 06:14:49;;;;;;;0.40;0.40;;;21.60;99.90;;;;;;5115116;28;20201;-65
2022/08/15 06:17:41;;;;;;;0.40;0.40;;;21.90;99.90;;;;;;5115438;28;20293;-66
2022/08/15 06:20:37;;;;;;;0.40;0.40;;;21.90;99.90;;;;;;5114800;28;20249;-65
2022/08/15 06:23:49;;;;;;;0.40;0.40;;;22.00;99.90;;;;;;5113287;28;20260;-66
2022/08/15 06:26:49;;;;;;;0.40;0.40;;;22.10;99.90;;;;;;5115670;28;20206;-66
2022/08/15 06:29:54;;;;;;;0.40;0.40;;;22.30;99.90;;;;;;5115042;28;20299;-67
2022/08/15 06:32:53;;;;;;;0.50;0.50;;;22.30;99.90;;;;;;5115628;28;20203;-66
2022/08/15 06:35:58;;;;;;;0.40;0.40;;;22.40;99.90;;;;;;5107582;28;20678;-66
2022/08/15 06:38:55;;;;;;;0.40;0.40;;;22.50;99.90;;;;;;5102861;28;20220;-65
2022/08/15 06:41:52;;;;;;;0.40;0.40;;;22.60;99.90;;;;;;5095727;28;20199;-67
2022/08/15 06:44:42;;;;;;;0.40;0.40;;;22.70;99.90;;;;;;5094630;28;20204;-65
2022/08/15 06:47:33;;;;;;;0.95;0.95;;;22.90;99.90;;;;;;5095191;28;20203;-66
2022/08/15 06:50:25;;;;;;;0.88;0.65;;;22.80;99.90;;;;;;5094170;28;20234;-65
2022/08/15 06:53:19;;;;;;;0.43;0.43;;;22.90;99.90;;;;;;5095097;28;20199;-65
2022/08/15 06:56:17;;;;;;;0.40;0.40;;;23.00;99.90;;;;;;5095193;28;20204;-65
2022/08/15 06:59:14;;;;;;;0.40;0.40;;;23.10;99.90;;;;;;5094532;28;20261;-64
2022/08/15 07:02:15;;;;;;;0.40;0.40;;;23.20;99.90;;;;;;5094872;28;20192;-64
2022/08/15 07:05:14;;;;;;;0.40;0.40;;;23.30;99.90;;;;;;5093878;28;20204;-64
2022/08/15 07:08:20;;;;;;;0.40;0.40;;;23.40;99.90;;;;;;5093835;28;20238;-65
2022/08/15 07:11:15;;;;;;;0.40;0.40;;;23.40;99.90;;;;;;5094364;28;20227;-64
2022/08/15 07:14:17;;;;;;;0.50;0.50;;;23.60;99.90;;;;;;5094893;28;20200;-65
2022/08/15 07:17:15;;;;;;;0.40;0.40;;;23.70;99.90;;;;;;5094284;28;20286;-66
2022/08/15 07:20:05;;;;;;;0.40;0.40;;;23.80;99.90;;;;;;5094130;28;20207;-64
2022/08/15 07:23:24;;;;;;;0.40;0.40;;;23.80;99.90;;;;;;5094739;28;20287;-66
2022/08/15 07:26:16;;;;;;;0.50;0.50;;;23.90;99.90;;;;;;5094328;28;20203;-65
2022/08/15 07:29:11;;;;;;;0.40;0.40;;;24.00;99.90;;;;;;5093217;28;20612;-67
2022/08/15 07:32:02;;;;;;;0.40;0.40;;;24.10;99.90;;;;;;5093334;28;20779;-66
2022/08/15 07:35:24;;;;;;;0.50;0.50;;;24.20;99.90;;;;;;5094360;28;20195;-65
2022/08/15 07:38:12;;;;;;;0.40;0.40;;;24.30;99.90;;;;;;5093016;28;20571;-66
2022/08/15 07:41:22;;;;;;;0.40;0.40;;;24.40;99.90;;;;;;5093261;28;20192;-66
2022/08/15 07:44:20;;;;;;;0.40;0.40;;;24.40;99.90;;;;;;5093630;28;20204;-66
2022/08/15 07:47:13;;;;;;;0.40;0.40;;;24.50;99.90;;;;;;5093727;28;20200;-66
2022/08/15 07:50:06;;;;;;;0.40;0.40;;;24.60;99.90;;;;;;5093479;28;20205;-66
2022/08/15 07:52:56;;;;;;;0.40;0.40;;;24.60;99.90;;;;;;5092694;28;20813;-65
2022/08/15 07:56:04;;;;;;;0.40;0.40;;;24.70;99.90;;;;;;5092740;28;20199;-66
2022/08/15 07:59:21;;;;;;;0.50;0.50;;;24.80;99.90;;;;;;5093216;28;20219;-65
2022/08/15 08:02:20;;;;;;;0.47;0.47;;;24.90;99.90;;;;;;5093624;28;20275;-66
2022/08/15 08:05:33;;;;;;;0.40;0.40;;;25.00;99.90;;;;;;5093263;28;20330;-66
2022/08/15 08:08:41;;;;;;;0.40;0.40;;;25.00;99.90;;;;;;5093227;28;20232;-65
2022/08/15 08:11:44;;;;;;;0.40;0.40;;;25.20;99.90;;;;;;5093628;28;20300;-65
2022/08/15 08:14:44;;;;;;;0.40;0.40;;;25.20;99.90;;;;;;5093457;28;20199;-65
2022/08/15 08:17:38;;;;;;;0.40;0.40;;;25.30;99.90;;;;;;5093165;28;20196;-65
2022/08/15 08:20:36;;;;;;;0.40;0.40;;;25.40;99.90;;;;;;5093109;28;20203;-65
2022/08/15 08:23:31;;;;;;;0.70;0.70;;;25.40;99.90;;;;;;5092726;28;20204;-65
2022/08/15 08:26:27;;;;;;;0.40;0.40;;;25.50;99.90;;;;;;5093012;28;20196;-65
2022/08/15 08:29:28;;;;;;;0.50;0.50;;;25.60;99.90;;;;;;5092040;28;20723;-65
2022/08/15 08:32:31;;;;;;;1.30;1.30;;;25.70;99.90;;;;;;5095102;28;20298;-65
2022/08/15 08:35:31;;;;;;;0.50;0.50;;;25.70;99.90;;;;;;5111296;28;20246;-65
2022/08/15 08:38:29;;;;;;;0.40;0.40;;;25.90;99.90;;;;;;5112509;28;20272;-65
2022/08/15 08:41:45;;;;;;;0.40;0.40;;;25.90;99.90;;;;;;5111946;28;20248;-64
2022/08/15 08:44:43;;;;;;;0.40;0.40;;;26.00;99.90;;;;;;5112719;28;20244;-65
2022/08/15 08:47:58;;;;;;;0.40;0.40;;;26.40;99.90;;;;;;5110673;28;20195;-64
2022/08/15 08:50:55;;;;;;;0.40;0.40;;;26.40;99.90;;;;;;5111821;28;20699;-65
2022/08/15 08:53:56;;;;;;;0.68;0.68;;;26.60;99.90;;;;;;5111638;28;20195;-65
2022/08/15 08:56:47;;;;;;;0.40;0.40;;;26.60;99.90;;;;;;5112155;28;20200;-65
2022/08/15 08:59:42;;;;;;;0.40;0.40;;;26.60;99.90;;;;;;5111890;28;20234;-65
2022/08/15 09:02:35;;;;;;;0.40;0.40;;;26.60;99.90;;;;;;5111303;28;20203;-65
2022/08/15 09:05:51;;;;;;;0.40;0.40;;;26.80;99.90;;;;;;5111774;28;20278;-65
2022/08/15 09:08:41;;;;;;;0.40;0.40;;;26.80;99.90;;;;;;5110854;28;20227;-65
2022/08/15 09:11:41;;;;;;;0.40;0.40;;;26.70;99.90;;;;;;5111843;28;20620;-65
2022/08/15 09:14:35;;;;;;;0.63;0.63;;;26.80;99.90;;;;;;5110836;28;20708;-65
2022/08/15 09:17:47;;;;;;;0.40;0.40;;;26.90;99.90;;;;;;5111645;28;20287;-65
2022/08/15 09:20:48;;;;;;;0.40;0.40;;;26.90;99.90;;;;;;5111331;28;20205;-65
2022/08/15 09:23:44;;;;;;;0.40;0.40;;;27.00;99.90;;;;;;5111499;28;20196;-65
2022/08/15 09:26:38;;;;;;;0.40;0.40;;;27.00;99.90;;;;;;5111314;28;20240;-66
2022/08/15 09:29:37;;;;;;;0.40;0.40;;;27.20;99.90;;;;;;5110571;28;20223;-65
2022/08/15 09:32:56;;;;;;;0.40;0.40;;;27.20;99.90;;;;;;5111372;28;20219;-65
2022/08/15 09:36:12;;;;;;;0.40;0.40;;;27.20;99.90;;;;;;5110756;28;20195;-65
2022/08/15 09:39:45;;;;;;;0.43;0.43;;;27.30;99.90;;;;;;5109787;28;20248;-65
2022/08/15 09:42:55;;;;;;;0.40;0.40;;;27.40;99.90;;;;;;5111705;28;20192;-65
2022/08/15 09:46:38;;;;;;;0.40;0.40;;;27.50;99.90;;;;;;5112079;28;20251;-65
2022/08/15 09:49:48;;;;;;;0.40;0.40;;;27.60;99.90;;;;;;5111001;28;20603;-65
2022/08/15 09:52:53;;;;;;;0.60;0.60;;;27.80;99.90;;;;;;5111545;28;20215;-65
2022/08/15 09:55:46;;;;;;;0.50;0.50;;;28.10;99.90;;;;;;5111326;28;20199;-63
2022/08/15 09:58:52;;;;;;;1.67;0.75;;;28.30;99.90;;;;;;5111018;28;20272;-63
2022/08/15 10:01:46;;;;;;;0.50;0.50;;;28.40;99.90;;;;;;5110261;28;20329;-63
2022/08/15 10:05:27;;;;;;;0.40;0.40;;;28.60;99.90;;;;;;5111215;28;20195;-63
2022/08/15 10:09:05;;;;;;;0.40;0.40;;;28.40;99.90;;;;;;5110835;28;20628;-63
2022/08/15 10:12:31;;;;;;;0.82;0.82;;;28.40;99.90;;;;;;5111184;28;20225;-65
2022/08/15 10:15:41;;;;;;;0.40;0.40;;;28.40;99.90;;;;;;5110018;28;20282;-63
2022/08/15 10:19:09;;;;;;;0.40;0.40;;;28.40;99.90;;;;;;5110369;28;20219;-63
2022/08/15 10:22:01;;;;;;;0.40;0.40;;;28.40;99.90;;;;;;5110827;28;20195;-63
2022/08/15 10:25:18;;;;;;;1.25;1.25;;;28.50;99.90;;;;;;5110522;28;20227;-64
2022/08/15 10:28:21;;;;;;;0.40;0.40;;;28.60;99.90;;;;;;5111495;28;20222;-64
2022/08/15 10:31:30;;;;;;;0.40;0.40;;;28.60;99.90;;;;;;5110481;28;20199;-64
2022/08/15 10:34:50;;;;;;;0.40;0.40;;;28.90;99.90;;;;;;5111115;28;20235;-64
2022/08/15 10:37:51;;;;;;;0.40;0.40;;;29.20;99.90;;;;;;5109600;28;20206;-64
2022/08/15 10:40:54;;;;;;;0.45;0.45;;;29.20;99.90;;;;;;5114829;28;20203;-64
2022/08/15 10:43:59;;;;;;;0.40;0.40;;;29.40;99.90;;;;;;5113684;28;20201;-64
2022/08/15 10:47:04;;;;;;;0.40;0.40;;;29.50;99.90;;;;;;5113012;28;20220;-64
2022/08/15 10:50:03;;;;;;;0.80;0.80;;;29.50;99.90;;;;;;5114129;28;20227;-64
2022/08/15 10:53:07;;;;;;;0.60;0.60;;;29.50;99.90;;;;;;5113355;28;20687;-64
2022/08/15 10:56:10;;;;;;;0.40;0.40;;;29.30;99.90;;;;;;5114567;28;20240;-64
2022/08/15 10:59:23;;;;;;;0.80;0.80;;;29.20;99.90;;;;;;5112553;28;20355;-64
2022/08/15 11:02:18;;;;;;;0.52;0.50;;;29.30;99.90;;;;;;5114332;28;20199;-64
2022/08/15 11:05:27;;;;;;;0.55;0.55;;;29.30;99.90;;;;;;5112892;28;20203;-64
2022/08/15 11:08:17;;;;;;;0.40;0.40;;;29.60;99.90;;;;;;5113165;28;20227;-64
2022/08/15 11:11:11;;;;;;;0.40;0.40;;;29.70;99.90;;;;;;5113727;28;20231;-64
2022/08/15 11:14:15;;;;;;;0.77;0.60;;;29.70;99.90;;;;;;5114058;28;20219;-64
2022/08/15 11:17:18;;;;;;;0.70;0.70;;;29.80;99.90;;;;;;5113732;28;20207;-64
2022/08/15 11:20:16;;;;;;;0.50;0.50;;;29.80;99.90;;;;;;5112739;28;20202;-65
2022/08/15 11:23:11;;;;;;;0.40;0.40;;;29.90;99.90;;;;;;5113109;28;20187;-64
2022/08/15 11:26:00;;;;;;;0.40;0.40;;;30.10;99.90;;;;;;5113387;28;20206;-65
2022/08/15 11:28:56;;;;;;;0.50;0.50;;;30.10;99.90;;;;;;5113529;28;20723;-64
2022/08/15 11:31:48;;;;;;;0.60;0.60;;;30.00;99.90;;;;;;5114055;28;20199;-64
2022/08/15 11:34:46;;;;;;;0.40;0.40;;;30.00;99.90;;;;;;5112554;28;20278;-64
2022/08/15 11:37:41;;;;;;;0.40;0.40;;;29.80;99.90;;;;;;5113289;28;20202;-64
2022/08/15 11:40:33;;;;;;;0.40;0.40;;;29.90;99.90;;;;;;5113137;28;20214;-64
2022/08/15 11:43:21;;;;;;;0.40;0.40;;;29.90;99.90;;;;;;5113353;28;20676;-64
2022/08/15 11:46:11;;;;;;;0.40;0.40;;;30.10;99.90;;;;;;5112510;28;20332;-64
2022/08/15 11:49:28;;;;;;;0.40;0.40;;;31.00;99.90;;;;;;5112176;28;20215;-64
2022/08/15 11:52:26;;;;;;;0.40;0.40;;;31.20;99.90;;;;;;5111993;28;20209;-64
2022/08/15 11:55:47;;;;;;;0.40;0.40;;;31.60;99.40;;;;;;5112720;28;20302;-64
2022/08/15 11:58:44;;;;;;;0.40;0.40;;;31.70;98.60;;;;;;5112860;28;20221;-64
2022/08/15 12:02:12;;;;;;;0.40;0.40;;;31.70;97.60;;;;;;5112856;28;20249;-65
2022/08/15 12:05:29;;;;;;;0.40;0.40;;;31.50;97.30;;;;;;5110927;28;20689;-64
2022/08/15 12:08:40;;;;;;;0.40;0.40;;;31.40;97.30;;;;;;5111644;28;20727;-64
2022/08/15 12:11:41;;;;;;;0.40;0.40;;;31.40;97.10;;;;;;5111921;28;20202;-64
2022/08/15 12:14:30;;;;;;;0.40;0.40;;;31.30;96.30;;;;;;5111967;28;20219;-64
2022/08/15 12:17:29;;;;;;;0.40;0.40;;;31.20;96.90;;;;;;5111629;28;20195;-64
2022/08/15 12:20:45;;;;;;;0.40;0.40;;;31.10;96.50;;;;;;5111933;28;20707;-64
2022/08/15 12:23:37;;;;;;;0.40;0.40;;;31.20;97.00;;;;;;5111842;28;20200;-64
2022/08/15 12:26:35;;;;;;;0.40;0.40;;;31.30;96.50;;;;;;5112520;28;20735;-64
2022/08/15 12:29:35;;;;;;;0.40;0.40;;;31.40;96.70;;;;;;5111241;28;20247;-64
2022/08/15 12:32:25;;;;;;;0.40;0.40;;;31.50;95.30;;;;;;5111787;28;20244;-64
2022/08/15 12:35:25;;;;;;;0.40;0.40;;;31.40;95.80;;;;;;5112481;28;20256;-64
2022/08/15 12:38:35;;;;;;;0.40;0.40;;;30.90;95.40;;;;;;5112580;28;20297;-64
2022/08/15 12:41:27;;;;;;;0.40;0.40;;;30.90;95.80;;;;;;5111708;28;20679;-65
2022/08/15 12:44:38;;;;;;;0.40;0.40;;;30.80;95.80;;;;;;5112379;28;20196;-64
2022/08/15 12:47:29;;;;;;;0.50;0.50;;;31.30;95.30;;;;;;5112594;28;20196;-65
2022/08/15 12:50:37;;;;;;;0.45;0.45;;;31.60;93.90;;;;;;5110647;28;20278;-65
2022/08/15 12:53:27;;;;;;;0.40;0.40;;;32.10;94.30;;;;;;5112529;28;20211;-65
2022/08/15 12:56:17;;;;;;;0.40;0.40;;;33.20;92.50;;;;;;5111952;28;20634;-65
2022/08/15 12:59:25;;;;;;;0.40;0.40;;;34.60;90.80;;;;;;5112075;28;20228;-67
2022/08/15 13:02:17;;;;;;;0.52;0.52;;;35.60;87.20;;;;;;5110101;28;20203;-65
2022/08/15 13:05:31;;;;;;;0.40;0.40;;;35.30;86.20;;;;;;5111792;28;20324;-65
2022/08/15 13:08:39;;;;;;;0.40;0.40;;;34.50;87.00;;;;;;5111678;28;20602;-65
2022/08/15 13:11:28;;;;;;;0.40;0.40;;;33.90;88.20;;;;;;5111694;28;20196;-65
2022/08/15 13:14:19;;;;;;;0.40;0.40;;;34.20;86.80;;;;;;5110527;28;20303;-65
2022/08/15 13:17:08;;;;;;;0.40;0.40;;;34.40;86.00;;;;;;5111040;28;20502;-65
2022/08/15 13:23:38;;;;;;;0.40;0.40;;;34.60;86.80;;;;;;5111165;28;20191;-65
2022/08/15 13:26:47;;;;;;;0.40;0.40;;;37.40;79.90;;;;;;5111951;28;20336;-65
2022/08/15 13:29:39;;;;;;;0.40;0.40;;;38.40;73.50;;;;;;5111336;28;20227;-65
2022/08/15 13:32:43;;;;;;;0.40;0.40;;;39.30;70.40;;;;;;5111613;28;20213;-65
2022/08/15 13:35:33;;;;;;;0.40;0.40;;;41.40;64.30;;;;;;5110468;28;20578;-65
2022/08/15 13:38:47;;;;;;;0.40;0.40;;;43.60;59.20;;;;;;5111406;28;20701;-65
2022/08/15 13:41:41;;;;;;;0.50;0.50;;;45.30;54.30;;;;;;5111560;28;20199;-66
2022/08/15 13:44:50;;;;;;;0.40;0.40;;;46.40;50.10;;;;;;5111772;28;20193;-65
2022/08/15 13:47:49;;;;;;;0.50;0.50;;;46.90;48.40;;;;;;5111615;28;20200;-65
2022/08/15 13:50:41;;;;;;;0.50;0.50;;;46.50;47.30;;;;;;5111583;28;20206;-65
2022/08/15 13:53:29;;;;;;;0.88;0.88;;;43.60;49.60;;;;;;5110939;28;20215;-65
2022/08/15 13:56:39;;;;;;;0.50;0.50;;;40.80;52.50;;;;;;5111917;28;20308;-65
2022/08/15 13:59:30;;;;;;;0.40;0.40;;;38.30;56.10;;;;;;5111475;28;20225;-65
2022/08/15 14:02:19;;;;;;;0.50;0.50;;;37.90;57.00;;;;;;5111777;28;20199;-65
2022/08/15 14:05:25;;;;;;;0.80;0.80;;;37.50;58.10;;;;;;5110627;28;20188;-65
2022/08/15 14:08:20;;;;;;;0.40;0.40;;;38.70;55.90;;;;;;5111606;28;20706;-64
2022/08/15 14:11:20;;;;;;;0.50;0.50;;;41.10;53.60;;;;;;5109864;28;20199;-65
2022/08/15 14:14:20;;;;;;;0.50;0.50;;;42.60;49.90;;;;;;5113392;28;20207;-64
2022/08/15 14:17:24;;;;;;;0.50;0.50;;;43.60;48.60;;;;;;5115190;28;20232;-64
2022/08/15 14:20:18;;;;;;;2.10;1.92;;;43.80;47.60;;;;;;5114982;28;20196;-64
2022/08/15 14:23:14;;;;;;;1.30;1.30;;;43.30;46.60;;;;;;5114953;28;20566;-64
2022/08/15 14:26:10;;;;;;;0.50;0.50;;;42.10;47.50;;;;;;5113210;28;20192;-64
2022/08/15 14:29:30;;;;;;;0.50;0.50;;;41.00;48.80;;;;;;5114091;28;20298;-64
2022/08/15 14:32:36;;;;;;;0.50;0.50;;;40.10;49.80;;;;;;5114313;28;20202;-63
2022/08/15 14:35:40;;;;;;;0.50;0.50;;;39.40;50.70;;;;;;5113743;28;20254;-63
2022/08/15 14:38:49;;;;;;;0.70;0.60;;;38.40;51.60;;;;;;5114469;28;20247;-63
2022/08/15 14:41:40;;;;;;;0.50;0.50;;;38.20;52.10;;;;;;5113798;28;20229;-63
2022/08/15 14:44:32;;;;;;;0.40;0.40;;;38.70;52.50;;;;;;5114570;28;20223;-63
2022/08/15 14:47:35;;;;;;;0.40;0.40;;;39.70;51.40;;;;;;5115002;28;20231;-63
2022/08/15 14:50:25;;;;;;;0.40;0.40;;;40.50;49.90;;;;;;5114054;28;20191;-64
2022/08/15 14:53:33;;;;;;;0.40;0.40;;;40.70;50.20;;;;;;5113601;28;20332;-63
2022/08/15 14:56:22;;;;;;;0.65;0.65;;;40.10;50.60;;;;;;5113846;28;20192;-64
2022/08/15 14:59:20;;;;;;;0.50;0.50;;;40.50;50.40;;;;;;5114060;28;20211;-63
2022/08/15 15:02:14;;;;;;;0.40;0.40;;;40.30;50.00;;;;;;5114312;28;20195;-64
2022/08/15 15:05:12;;;;;;;0.50;0.50;;;40.50;50.70;;;;;;5114533;28;20202;-64
2022/08/15 15:08:03;;;;;;;0.40;0.40;;;40.20;50.40;;;;;;5113977;28;20323;-64
2022/08/15 15:11:07;;;;;;;0.40;0.40;;;39.90;50.90;;;;;;5113918;28;20203;-65
2022/08/15 15:13:59;;;;;;;0.40;0.40;;;39.10;51.40;;;;;;5113802;28;20327;-64
2022/08/15 15:16:47;;;;;;;0.40;0.40;;;38.10;52.00;;;;;;5113273;28;20268;-64
2022/08/15 15:19:41;;;;;;;0.40;0.40;;;36.90;53.80;;;;;;5113171;28;20227;-64
2022/08/15 15:22:29;;;;;;;0.60;0.60;;;36.40;55.30;;;;;;5113009;28;20191;-64
2022/08/15 15:25:19;;;;;;;0.50;0.50;;;35.80;56.30;;;;;;5112086;28;20672;-63
2022/08/15 15:28:10;;;;;;;0.50;0.50;;;35.10;57.40;;;;;;5113711;28;20809;-63
2022/08/15 15:31:23;;;;;;;0.40;0.40;;;35.10;58.00;;;;;;5112581;28;20681;-64
2022/08/15 15:34:15;;;;;;;0.40;0.40;;;34.90;58.40;;;;;;5112088;28;20208;-63
2022/08/15 15:37:05;;;;;;;0.40;0.40;;;34.50;59.10;;;;;;5112932;28;20202;-63